createdAt,value
2019-02-25T00:00:37.450Z,5.40
2019-02-25T00:03:06.278Z,5.30
2019-02-25T00:05:35.906Z,4.70
2019-02-25T00:08:04.568Z,5.10
2019-02-25T00:10:33.095Z,4.70
2019-02-25T00:13:01.715Z,4.80
2019-02-25T00:15:30.781Z,4.70
2019-02-25T00:17:59.730Z,5.00
2019-02-25T00:20:28.630Z,4.60
2019-02-25T00:22:57.787Z,4.40
2019-02-25T00:25:26.935Z,4.70
2019-02-25T00:27:56.009Z,4.50
2019-02-25T00:30:27.920Z,4.40
2019-02-25T00:32:56.975Z,4.40
2019-02-25T00:35:25.926Z,4.70
2019-02-25T00:37:55.860Z,4.40
2019-02-25T00:40:24.696Z,4.40
2019-02-25T00:42:53.496Z,4.40
2019-02-25T00:45:22.440Z,4.30
2019-02-25T00:47:51.318Z,4.10
2019-02-25T00:50:22.427Z,4.10
2019-02-25T00:52:51.633Z,4.10
2019-02-25T00:55:20.623Z,4.30
2019-02-25T00:57:49.429Z,4.40
2019-02-25T01:00:20.027Z,4.10
2019-02-25T01:02:49.044Z,4.10
2019-02-25T01:05:18.981Z,4.30
2019-02-25T01:07:48.120Z,4.10
2019-02-25T01:10:17.867Z,4.10
2019-02-25T01:12:47.049Z,4.00
2019-02-25T01:15:18.829Z,3.90
2019-02-25T01:17:49.659Z,3.80
2019-02-25T01:20:19.101Z,3.90
2019-02-25T01:22:47.980Z,4.10
2019-02-25T01:25:17.648Z,3.90
2019-02-25T01:27:46.809Z,4.00
2019-02-25T01:30:21.921Z,3.80
2019-02-25T01:32:51.080Z,3.80
2019-02-25T01:35:19.688Z,3.50
2019-02-25T01:37:48.323Z,3.50
2019-02-25T01:40:17.433Z,3.60
2019-02-25T01:42:46.654Z,3.60
2019-02-25T01:45:18.289Z,3.50
2019-02-25T01:47:47.409Z,3.60
2019-02-25T01:50:16.509Z,3.60
2019-02-25T01:52:45.465Z,3.60
2019-02-25T01:55:14.561Z,3.60
2019-02-25T01:57:44.914Z,3.50
2019-02-25T02:00:15.632Z,3.30
2019-02-25T02:02:44.842Z,3.40
2019-02-25T02:05:13.765Z,3.50
2019-02-25T02:07:42.503Z,3.30
2019-02-25T02:10:14.165Z,3.40
2019-02-25T02:12:43.307Z,3.30
2019-02-25T02:15:17.148Z,3.30
2019-02-25T02:17:45.800Z,3.30
2019-02-25T02:20:16.546Z,3.30
2019-02-25T02:22:46.273Z,3.30
2019-02-25T02:25:15.005Z,3.30
2019-02-25T02:27:43.860Z,3.30
2019-02-25T02:30:15.264Z,3.20
2019-02-25T02:32:44.152Z,3.40
2019-02-25T02:35:13.323Z,3.10
2019-02-25T02:37:42.478Z,3.00
2019-02-25T02:40:12.468Z,3.30
2019-02-25T02:42:44.273Z,3.10
2019-02-25T02:45:16.146Z,3.00
2019-02-25T02:47:50.532Z,3.00
2019-02-25T02:50:21.471Z,3.10
2019-02-25T02:52:50.175Z,3.00
2019-02-25T02:55:19.317Z,3.00
2019-02-25T02:57:48.444Z,3.10
2019-02-25T03:00:19.280Z,3.00
2019-02-25T03:02:48.328Z,3.00
2019-02-25T03:05:17.375Z,3.20
2019-02-25T03:07:46.195Z,3.00
2019-02-25T03:10:18.858Z,2.90
2019-02-25T03:12:48.234Z,3.20
2019-02-25T03:15:19.085Z,3.00
2019-02-25T03:17:48.905Z,2.90
2019-02-25T03:20:17.769Z,3.00
2019-02-25T03:22:46.534Z,2.90
2019-02-25T03:25:18.749Z,3.10
2019-02-25T03:27:47.634Z,2.90
2019-02-25T03:30:21.325Z,3.00
2019-02-25T03:32:50.421Z,2.80
2019-02-25T03:35:19.199Z,2.80
2019-02-25T03:37:48.059Z,2.80
2019-02-25T03:40:19.334Z,2.70
2019-02-25T03:42:48.251Z,2.70
2019-02-25T03:45:18.267Z,2.70
2019-02-25T03:47:47.390Z,2.80
2019-02-25T03:50:16.585Z,2.80
2019-02-25T03:52:45.423Z,2.70
2019-02-25T03:55:20.272Z,2.70
2019-02-25T03:57:50.389Z,2.70
2019-02-25T04:00:24.987Z,2.80
2019-02-25T04:02:54.341Z,2.50
2019-02-25T04:05:23.066Z,2.80
2019-02-25T04:07:51.788Z,2.60
2019-02-25T04:10:20.529Z,2.40
2019-02-25T04:12:49.079Z,2.50
2019-02-25T04:15:20.390Z,2.50
2019-02-25T04:17:49.295Z,2.50
2019-02-25T04:20:18.323Z,2.50
2019-02-25T04:22:47.537Z,2.60
2019-02-25T04:25:17.167Z,2.50
2019-02-25T04:27:46.538Z,2.50
2019-02-25T04:30:18.512Z,2.50
2019-02-25T04:32:47.165Z,2.30
2019-02-25T04:35:16.056Z,2.30
2019-02-25T04:37:44.917Z,2.60
2019-02-25T04:40:14.259Z,2.30
2019-02-25T04:42:43.435Z,2.60
2019-02-25T04:45:14.956Z,2.50
2019-02-25T04:47:43.784Z,2.40
2019-02-25T04:50:13.431Z,2.30
2019-02-25T04:52:42.527Z,2.20
2019-02-25T04:55:12.518Z,2.20
2019-02-25T04:57:41.484Z,2.20
2019-02-25T05:00:12.661Z,2.10
2019-02-25T05:02:41.872Z,2.20
2019-02-25T05:05:11.503Z,2.30
2019-02-25T05:07:41.445Z,2.20
2019-02-25T05:10:15.058Z,2.30
2019-02-25T05:12:48.014Z,2.20
2019-02-25T05:15:18.435Z,2.10
2019-02-25T05:17:47.541Z,2.20
2019-02-25T05:20:16.651Z,2.20
2019-02-25T05:22:45.260Z,2.00
2019-02-25T05:25:13.988Z,2.20
2019-02-25T05:27:43.170Z,2.20
2019-02-25T05:30:15.541Z,2.30
2019-02-25T05:32:44.638Z,2.20
2019-02-25T05:35:15.468Z,2.00
2019-02-25T05:37:44.526Z,2.00
2019-02-25T05:40:17.241Z,2.00
2019-02-25T05:42:46.338Z,2.00
2019-02-25T05:45:15.635Z,1.90
2019-02-25T05:47:44.662Z,1.80
2019-02-25T05:50:16.896Z,2.00
2019-02-25T05:52:45.812Z,2.00
2019-02-25T05:55:15.209Z,2.00
2019-02-25T05:57:44.332Z,1.90
2019-02-25T06:00:22.789Z,1.80
2019-02-25T06:02:51.379Z,1.70
2019-02-25T06:05:19.909Z,2.00
2019-02-25T06:07:48.537Z,1.80
2019-02-25T06:10:17.341Z,2.00
2019-02-25T06:12:46.414Z,2.00
2019-02-25T06:15:21.967Z,1.90
2019-02-25T06:17:50.951Z,1.80
2019-02-25T06:20:20.071Z,2.00
2019-02-25T06:22:49.892Z,1.90
2019-02-25T06:25:18.757Z,1.90
2019-02-25T06:27:47.764Z,2.00
2019-02-25T06:30:24.399Z,2.00
2019-02-25T06:32:53.619Z,2.00
2019-02-25T06:35:22.713Z,2.00
2019-02-25T06:37:51.814Z,1.90
2019-02-25T06:40:23.644Z,1.70
2019-02-25T06:42:53.803Z,1.70
2019-02-25T06:45:30.883Z,1.80
2019-02-25T06:47:59.482Z,1.90
2019-02-25T06:50:28.548Z,2.00
2019-02-25T06:52:58.467Z,1.80
2019-02-25T06:55:27.560Z,1.90
2019-02-25T06:57:57.987Z,2.00
2019-02-25T07:00:27.042Z,2.00
2019-02-25T07:02:56.065Z,1.80
2019-02-25T07:05:26.702Z,1.80
2019-02-25T07:07:59.613Z,2.10
2019-02-25T07:10:33.181Z,1.80
2019-02-25T07:13:15.687Z,1.90
2019-02-25T07:16:02.295Z,1.90
2019-02-25T07:18:32.954Z,2.00
2019-02-25T07:21:03.637Z,1.90
2019-02-25T07:23:34.487Z,2.00
2019-02-25T07:26:10.726Z,1.90
2019-02-25T07:28:46.929Z,1.90
2019-02-25T07:31:26.777Z,1.90
2019-02-25T07:33:57.140Z,1.90
2019-02-25T07:36:36.826Z,1.70
2019-02-25T07:39:25.525Z,1.80
2019-02-25T07:41:57.026Z,1.90
2019-02-25T07:44:33.430Z,2.00
2019-02-25T07:47:16.542Z,1.90
2019-02-25T07:49:50.155Z,2.00
2019-02-25T07:52:38.621Z,1.80
2019-02-25T07:55:27.065Z,1.90
2019-02-25T07:57:57.778Z,1.90
2019-02-25T08:00:31.287Z,2.00
2019-02-25T08:03:18.571Z,1.80
2019-02-25T08:06:05.005Z,2.00
2019-02-25T08:08:47.683Z,1.90
2019-02-25T08:11:34.802Z,1.90
2019-02-25T08:14:11.147Z,1.70
2019-02-25T08:16:44.312Z,2.00
2019-02-25T08:19:32.931Z,1.90
2019-02-25T08:22:05.967Z,2.00
2019-02-25T08:24:37.754Z,2.00
2019-02-25T08:27:08.552Z,1.90
2019-02-25T08:29:41.900Z,1.90
2019-02-25T08:32:12.496Z,2.00
2019-02-25T08:35:00.341Z,2.00
2019-02-25T08:37:39.678Z,2.00
2019-02-25T08:40:22.507Z,2.00
2019-02-25T08:42:52.265Z,2.00
2019-02-25T08:45:25.627Z,1.90
2019-02-25T08:47:56.172Z,1.80
2019-02-25T08:50:24.921Z,2.00
2019-02-25T08:52:54.728Z,1.70
2019-02-25T08:55:23.760Z,1.50
2019-02-25T08:57:52.795Z,2.00
2019-02-25T09:00:21.673Z,1.80
2019-02-25T09:02:50.797Z,2.00
2019-02-25T09:05:19.791Z,2.00
2019-02-25T09:07:48.974Z,1.80
2019-02-25T09:10:17.986Z,2.00
2019-02-25T09:12:48.813Z,2.00
2019-02-25T09:15:17.505Z,2.00
2019-02-25T09:17:47.431Z,1.80
2019-02-25T09:20:16.483Z,2.00
2019-02-25T09:22:46.533Z,2.00
2019-02-25T09:25:15.825Z,1.80
2019-02-25T09:27:45.744Z,1.90
2019-02-25T09:30:18.774Z,2.00
2019-02-25T09:32:47.939Z,1.80
2019-02-25T09:35:17.244Z,2.00
2019-02-25T09:37:46.147Z,1.80
2019-02-25T09:40:18.495Z,2.00
2019-02-25T09:42:47.439Z,1.80
2019-02-25T09:45:18.011Z,1.90
2019-02-25T09:47:47.527Z,1.80
2019-02-25T09:50:20.532Z,1.90
2019-02-25T09:52:49.578Z,2.00
2019-02-25T09:55:18.524Z,2.10
2019-02-25T09:57:47.785Z,1.90
2019-02-25T10:00:21.558Z,1.90
2019-02-25T10:02:50.914Z,2.00
2019-02-25T10:05:19.835Z,2.10
2019-02-25T10:07:48.931Z,2.10
2019-02-25T10:10:21.422Z,2.00
2019-02-25T10:12:50.513Z,2.10
2019-02-25T10:15:26.861Z,1.70
2019-02-25T10:17:55.936Z,2.00
2019-02-25T10:20:25.062Z,1.80
2019-02-25T10:22:54.284Z,2.00
2019-02-25T10:25:23.012Z,2.00
2019-02-25T10:27:52.560Z,2.00
2019-02-25T10:30:21.311Z,2.00
2019-02-25T10:32:49.983Z,2.00
2019-02-25T10:35:27.241Z,2.10
2019-02-25T10:37:56.276Z,2.00
2019-02-25T10:40:27.392Z,2.00
2019-02-25T10:42:55.501Z,1.80
2019-02-25T10:45:24.786Z,1.90
2019-02-25T10:47:58.279Z,2.10
2019-02-25T10:50:24.685Z,1.90
2019-02-25T10:53:03.042Z,2.00
2019-02-25T10:55:30.313Z,2.00
2019-02-25T10:57:59.825Z,1.90
2019-02-25T11:00:30.268Z,1.80
2019-02-25T11:02:59.252Z,1.90
2019-02-25T11:05:30.513Z,2.00
2019-02-25T11:07:59.973Z,2.00
2019-02-25T11:10:39.986Z,2.00
2019-02-25T11:13:09.143Z,1.70
2019-02-25T11:15:40.200Z,1.80
2019-02-25T11:18:10.105Z,2.00
2019-02-25T11:20:39.046Z,1.70
2019-02-25T11:23:09.976Z,1.70
2019-02-25T11:25:39.286Z,1.80
2019-02-25T11:28:11.217Z,1.70
2019-02-25T11:30:38.717Z,1.70
2019-02-25T11:33:07.891Z,1.60
2019-02-25T11:35:38.804Z,1.50
2019-02-25T11:38:07.511Z,1.20
2019-02-25T11:40:38.383Z,1.50
2019-02-25T11:43:08.387Z,1.20
2019-02-25T11:45:38.051Z,1.10
2019-02-25T11:48:08.298Z,1.20
2019-02-25T11:50:37.284Z,1.20
2019-02-25T11:53:06.298Z,0.90
2019-02-25T11:55:36.691Z,1.10
2019-02-25T11:58:05.719Z,0.70
2019-02-25T12:00:34.836Z,1.20
2019-02-25T12:03:03.576Z,0.90
2019-02-25T12:05:32.472Z,1.00
2019-02-25T12:08:01.260Z,0.80
2019-02-25T12:10:30.328Z,1.10
2019-02-25T12:12:59.371Z,0.70
2019-02-25T12:15:28.225Z,0.80
2019-02-25T12:17:57.117Z,0.80
2019-02-25T12:20:26.212Z,0.60
2019-02-25T12:22:56.233Z,1.00
2019-02-25T12:25:26.108Z,0.70
2019-02-25T12:27:55.034Z,1.00
2019-02-25T12:30:25.956Z,1.10
2019-02-25T12:32:54.719Z,1.10
2019-02-25T12:35:23.666Z,1.00
2019-02-25T12:37:52.537Z,0.70
2019-02-25T12:40:22.164Z,1.20
2019-02-25T12:42:51.199Z,0.90
2019-02-25T12:45:20.000Z,0.90
2019-02-25T12:47:49.274Z,0.90
2019-02-25T12:50:21.227Z,1.00
2019-02-25T12:52:50.654Z,1.20
2019-02-25T12:55:20.031Z,1.20
2019-02-25T12:57:49.215Z,0.90
2019-02-25T13:00:18.747Z,1.30
2019-02-25T13:02:47.800Z,0.90
2019-02-25T13:05:20.461Z,1.20
2019-02-25T13:07:49.148Z,1.10
2019-02-25T13:10:18.867Z,1.30
2019-02-25T13:12:47.667Z,0.70
2019-02-25T13:15:19.117Z,0.90
2019-02-25T13:17:48.289Z,0.80
2019-02-25T13:20:17.387Z,1.00
2019-02-25T13:22:46.270Z,1.00
2019-02-25T13:25:19.681Z,0.40
2019-02-25T13:27:48.515Z,0.80
2019-02-25T13:30:17.739Z,0.40
2019-02-25T13:32:46.412Z,0.80
2019-02-25T13:35:15.658Z,1.00
2019-02-25T13:37:44.766Z,0.80
2019-02-25T13:40:17.980Z,0.60
2019-02-25T13:42:46.914Z,0.40
2019-02-25T13:45:22.051Z,1.00
2019-02-25T13:47:51.037Z,0.60
2019-02-25T13:50:20.324Z,0.80
2019-02-25T13:52:49.242Z,1.00
2019-02-25T13:55:22.137Z,0.80
2019-02-25T13:57:51.272Z,0.90
2019-02-25T14:00:24.902Z,0.70
2019-02-25T14:02:54.076Z,1.00
2019-02-25T14:05:23.609Z,0.90
2019-02-25T14:07:52.733Z,1.00
2019-02-25T14:10:21.922Z,0.60
2019-02-25T14:12:50.664Z,0.70
2019-02-25T14:15:21.230Z,0.70
2019-02-25T14:17:51.170Z,1.00
2019-02-25T14:20:23.972Z,1.00
2019-02-25T14:22:52.948Z,1.10
2019-02-25T14:25:27.411Z,1.20
2019-02-25T14:27:56.667Z,1.00
2019-02-25T14:30:32.730Z,1.20
2019-02-25T14:32:59.802Z,1.20
2019-02-25T14:35:30.970Z,1.20
2019-02-25T14:38:07.295Z,0.90
2019-02-25T14:40:33.192Z,1.00
2019-02-25T14:43:04.102Z,1.20
2019-02-25T14:45:34.882Z,1.00
2019-02-25T14:48:07.562Z,1.40
2019-02-25T14:50:37.281Z,1.10
2019-02-25T14:53:10.741Z,1.40
2019-02-25T14:55:37.029Z,1.10
2019-02-25T14:58:07.362Z,1.50
2019-02-25T15:00:38.163Z,1.50
2019-02-25T15:03:07.515Z,1.20
2019-02-25T15:05:36.394Z,1.20
2019-02-25T15:08:05.183Z,1.30
2019-02-25T15:10:36.102Z,1.60
2019-02-25T15:13:06.668Z,1.50
2019-02-25T15:15:37.076Z,1.50
2019-02-25T15:18:05.994Z,1.40
2019-02-25T15:20:35.150Z,1.50
2019-02-25T15:23:04.590Z,1.50
2019-02-25T15:25:35.811Z,1.30
2019-02-25T15:28:07.080Z,1.50
2019-02-25T15:30:35.070Z,1.50
2019-02-25T15:33:04.077Z,1.20
2019-02-25T15:35:35.101Z,1.40
2019-02-25T15:38:03.711Z,1.70
2019-02-25T15:40:33.385Z,1.60
2019-02-25T15:43:10.415Z,1.50
2019-02-25T15:45:42.439Z,1.70
2019-02-25T15:48:13.478Z,1.80
2019-02-25T15:50:46.138Z,1.60
2019-02-25T15:53:15.932Z,1.50
2019-02-25T15:55:44.833Z,1.70
2019-02-25T15:58:13.975Z,1.50
2019-02-25T16:00:43.124Z,1.40
2019-02-25T16:03:13.614Z,1.50
2019-02-25T16:05:43.556Z,1.80
2019-02-25T16:08:16.179Z,1.70
2019-02-25T16:10:44.076Z,1.50
2019-02-25T16:13:14.224Z,1.50
2019-02-25T16:15:43.479Z,1.70
2019-02-25T16:18:14.106Z,1.80
2019-02-25T16:20:46.268Z,2.00
2019-02-25T16:23:15.621Z,1.90
2019-02-25T16:25:46.179Z,1.90
2019-02-25T16:28:17.188Z,2.00
2019-02-25T16:30:46.803Z,2.00
2019-02-25T16:33:16.138Z,1.90
2019-02-25T16:35:46.209Z,2.00
2019-02-25T16:38:15.464Z,2.00
2019-02-25T16:40:44.630Z,1.70
2019-02-25T16:43:13.673Z,2.00
2019-02-25T16:45:46.454Z,2.00
2019-02-25T16:48:14.106Z,2.10
2019-02-25T16:50:45.807Z,2.00
2019-02-25T16:53:15.422Z,2.00
2019-02-25T16:55:46.401Z,1.80
2019-02-25T16:58:15.218Z,2.00
2019-02-25T17:00:44.576Z,2.00
2019-02-25T17:03:15.926Z,2.10
2019-02-25T17:05:45.615Z,1.90
2019-02-25T17:08:16.492Z,1.90
2019-02-25T17:10:45.985Z,2.00
2019-02-25T17:13:17.090Z,1.90
2019-02-25T17:15:46.805Z,1.90
2019-02-25T17:18:15.976Z,2.00
2019-02-25T17:20:45.321Z,1.80
2019-02-25T17:23:15.256Z,2.00
2019-02-25T17:25:44.407Z,1.80
2019-02-25T17:28:15.280Z,1.90
2019-02-25T17:30:45.619Z,2.00
2019-02-25T17:33:14.899Z,2.00
2019-02-25T17:35:45.217Z,1.80
2019-02-25T17:38:15.952Z,1.80
2019-02-25T17:40:45.783Z,1.80
2019-02-25T17:43:15.739Z,1.70
2019-02-25T17:45:45.323Z,1.50
2019-02-25T17:48:16.211Z,1.60
2019-02-25T17:50:46.123Z,1.80
2019-02-25T17:53:14.841Z,1.90
2019-02-25T17:55:43.791Z,1.70
2019-02-25T17:58:13.049Z,1.70
2019-02-25T18:00:44.677Z,1.70
2019-02-25T18:03:15.476Z,2.00
2019-02-25T18:05:44.735Z,1.50
2019-02-25T18:08:15.395Z,2.00
2019-02-25T18:10:45.274Z,1.80
2019-02-25T18:13:15.138Z,2.00
2019-02-25T18:15:45.079Z,1.70
2019-02-25T18:18:17.797Z,1.60
2019-02-25T18:20:46.306Z,1.50
2019-02-25T18:23:15.679Z,1.80
2019-02-25T18:25:44.951Z,1.40
2019-02-25T18:28:15.173Z,1.60
2019-02-25T18:30:45.309Z,1.60
2019-02-25T18:33:14.671Z,1.80
2019-02-25T18:35:44.137Z,1.50
2019-02-25T18:38:13.842Z,1.80
2019-02-25T18:40:44.114Z,1.70
2019-02-25T18:43:13.638Z,1.70
2019-02-25T18:45:44.411Z,1.60
2019-02-25T18:48:14.878Z,1.50
2019-02-25T18:50:47.020Z,1.60
2019-02-25T18:53:16.441Z,1.70
2019-02-25T18:55:47.551Z,1.60
2019-02-25T18:58:17.982Z,1.50
2019-02-25T19:00:49.288Z,1.40
2019-02-25T19:03:18.695Z,2.00
2019-02-25T19:05:48.998Z,1.90
2019-02-25T19:08:22.878Z,2.00
2019-02-25T19:10:52.691Z,2.00
2019-02-25T19:13:24.824Z,2.00
2019-02-25T19:15:54.970Z,1.80
2019-02-25T19:18:23.890Z,1.70
2019-02-25T19:20:52.654Z,1.80
2019-02-25T19:23:21.739Z,1.80
2019-02-25T19:25:51.166Z,2.00
2019-02-25T19:28:22.111Z,2.30
2019-02-25T19:30:51.619Z,2.00
2019-02-25T19:33:21.691Z,2.00
2019-02-25T19:35:52.498Z,2.20
2019-02-25T19:38:21.570Z,2.30
2019-02-25T19:40:53.065Z,2.30
2019-02-25T19:43:22.254Z,2.30
2019-02-25T19:45:51.519Z,2.20
2019-02-25T19:48:22.640Z,2.30
2019-02-25T19:50:53.625Z,2.50
2019-02-25T19:53:22.181Z,2.10
2019-02-25T19:55:53.218Z,2.40
2019-02-25T19:58:21.759Z,2.20
2019-02-25T20:00:53.071Z,2.40
2019-02-25T20:03:21.700Z,2.30
2019-02-25T20:05:53.840Z,2.30
2019-02-25T20:08:22.187Z,2.40
2019-02-25T20:10:54.294Z,2.40
2019-02-25T20:13:22.651Z,2.50
2019-02-25T20:15:53.275Z,2.50
2019-02-25T20:18:23.641Z,2.30
2019-02-25T20:20:54.937Z,2.60
2019-02-25T20:23:24.973Z,2.50
2019-02-25T20:25:55.686Z,2.50
2019-02-25T20:28:26.862Z,2.50
2019-02-25T20:30:56.205Z,2.30
2019-02-25T20:33:30.426Z,2.50
2019-02-25T20:35:58.400Z,2.50
2019-02-25T20:38:29.038Z,2.80
2019-02-25T20:40:59.678Z,2.80
2019-02-25T20:43:30.279Z,2.80
2019-02-25T20:46:01.109Z,3.10
2019-02-25T20:48:29.574Z,3.00
2019-02-25T20:50:59.893Z,3.00
2019-02-25T20:53:30.103Z,3.00
2019-02-25T20:56:00.036Z,2.90
2019-02-25T20:58:29.268Z,3.00
2019-02-25T21:00:58.568Z,2.70
2019-02-25T21:03:27.765Z,3.00
2019-02-25T21:05:57.171Z,3.00
2019-02-25T21:08:26.428Z,3.00
2019-02-25T21:10:55.848Z,3.00
2019-02-25T21:13:28.430Z,3.20
2019-02-25T21:15:58.220Z,3.30
2019-02-25T21:18:28.699Z,3.40
2019-02-25T21:20:57.434Z,3.30
2019-02-25T21:23:26.523Z,3.20
2019-02-25T21:25:58.094Z,3.30
2019-02-25T21:28:29.044Z,3.50
2019-02-25T21:30:57.317Z,3.30
2019-02-25T21:33:28.297Z,2.90
2019-02-25T21:35:56.616Z,3.00
2019-02-25T21:38:26.753Z,2.90
2019-02-25T21:40:55.450Z,3.20
2019-02-25T21:43:28.423Z,3.30
2019-02-25T21:45:56.621Z,3.20
2019-02-25T21:48:27.543Z,3.10
2019-02-25T21:51:00.108Z,3.20
2019-02-25T21:53:27.611Z,3.10
2019-02-25T21:55:59.217Z,2.90
2019-02-25T21:58:27.796Z,3.00
2019-02-25T22:00:56.863Z,3.10
2019-02-25T22:03:26.247Z,3.00
2019-02-25T22:05:56.252Z,3.10
2019-02-25T22:11:15.603Z,2.90
2019-02-25T22:13:43.211Z,3.00
2019-02-25T22:16:12.335Z,3.00
2019-02-25T22:18:41.006Z,3.10
2019-02-25T22:21:13.682Z,3.00
2019-02-25T22:23:41.050Z,2.90
2019-02-25T22:26:11.237Z,3.10
2019-02-25T22:28:40.471Z,3.10
2019-02-25T22:31:10.985Z,3.30
2019-02-25T22:33:40.849Z,3.20
2019-02-25T22:36:11.105Z,3.40
2019-02-25T22:38:40.020Z,3.30
2019-02-25T22:41:09.638Z,3.40
2019-02-25T22:43:39.647Z,3.40
2019-02-25T22:46:11.650Z,3.40
2019-02-25T22:48:43.178Z,3.30
2019-02-25T22:51:11.257Z,2.90
2019-02-25T22:53:40.630Z,3.00
2019-02-25T22:56:13.375Z,3.00
2019-02-25T22:58:42.924Z,3.00
2019-02-25T23:01:15.618Z,2.80
2019-02-25T23:03:45.163Z,2.70
2019-02-25T23:06:15.625Z,2.60
2019-02-25T23:08:46.420Z,2.70
2019-02-25T23:11:16.739Z,2.80
2019-02-25T23:13:47.871Z,2.80
2019-02-25T23:16:20.314Z,2.80
2019-02-25T23:18:49.195Z,2.60
2019-02-25T23:21:23.862Z,2.60
2019-02-25T23:23:51.281Z,2.50
2019-02-25T23:26:21.565Z,2.70
2019-02-25T23:28:51.128Z,2.60
2019-02-25T23:31:21.421Z,2.80
2019-02-25T23:33:51.285Z,2.50
2019-02-25T23:36:23.921Z,2.50
2019-02-25T23:38:53.083Z,2.60
2019-02-25T23:41:23.206Z,2.50
2019-02-25T23:43:53.375Z,2.30
2019-02-25T23:46:25.195Z,2.40
2019-02-25T23:48:53.868Z,2.50
2019-02-25T23:51:23.474Z,2.10
2019-02-25T23:53:53.671Z,2.40
2019-02-25T23:56:25.618Z,2.20
2019-02-25T23:58:55.243Z,2.30
